createdAt,value
2019-05-06T00:02:13.868Z,1.80
2019-05-06T00:07:08.460Z,2.00
2019-05-06T00:12:03.996Z,1.90
2019-05-06T00:16:58.921Z,2.20
2019-05-06T00:21:54.157Z,2.13
2019-05-06T00:26:57.185Z,2.10
2019-05-06T00:31:49.589Z,2.37
2019-05-06T00:36:44.184Z,2.47
2019-05-06T00:41:38.908Z,2.10
2019-05-06T00:46:34.481Z,2.53
2019-05-06T00:51:29.152Z,2.20
2019-05-06T00:56:24.429Z,2.20
2019-05-06T01:01:26.983Z,2.20
2019-05-06T01:06:15.675Z,2.10
2019-05-06T01:11:10.470Z,2.20
2019-05-06T01:16:05.282Z,2.13
2019-05-06T01:21:11.903Z,2.27
2019-05-06T01:26:06.481Z,2.43
2019-05-06T01:31:01.066Z,2.50
2019-05-06T01:35:55.665Z,2.27
2019-05-06T01:40:51.895Z,2.17
2019-05-06T01:45:46.462Z,2.30
2019-05-06T01:50:41.052Z,2.50
2019-05-06T01:55:35.643Z,2.60
2019-05-06T02:00:30.388Z,2.70
2019-05-06T02:05:24.971Z,2.47
2019-05-06T02:10:19.551Z,2.87
2019-05-06T02:15:14.669Z,2.80
2019-05-06T02:20:10.735Z,2.80
2019-05-06T02:25:14.503Z,2.83
2019-05-06T02:30:11.629Z,2.47
2019-05-06T02:35:21.866Z,2.90
2019-05-06T02:40:25.234Z,2.73
2019-05-06T02:45:20.292Z,2.77
2019-05-06T02:50:16.639Z,2.77
2019-05-06T02:55:12.975Z,2.80
2019-05-06T03:00:15.669Z,3.17
2019-05-06T03:05:13.031Z,3.20
2019-05-06T03:10:12.927Z,2.90
2019-05-06T03:15:08.269Z,2.93
2019-05-06T03:20:04.652Z,2.57
2019-05-06T03:25:06.451Z,3.20
2019-05-06T03:29:57.182Z,2.80
2019-05-06T03:35:16.251Z,2.80
2019-05-06T03:39:48.135Z,3.40
2019-05-06T03:44:44.390Z,3.57
2019-05-06T03:49:42.575Z,3.23
2019-05-06T03:54:45.023Z,3.80
2019-05-06T03:59:38.539Z,3.40
2019-05-06T04:04:33.395Z,3.40
2019-05-06T04:09:28.119Z,3.93
2019-05-06T04:14:23.853Z,3.53
2019-05-06T04:19:29.093Z,3.60
2019-05-06T04:24:33.911Z,3.53
2019-05-06T04:29:28.956Z,3.50
2019-05-06T04:34:23.697Z,4.37
2019-05-06T04:39:19.348Z,4.50
2019-05-06T04:44:14.193Z,5.87
2019-05-06T04:49:14.036Z,5.13
2019-05-06T04:54:05.881Z,4.00
2019-05-06T04:59:05.743Z,8.63
2019-05-06T05:03:57.500Z,5.93
2019-05-06T05:08:53.451Z,6.07
2019-05-06T05:13:48.028Z,4.70
2019-05-06T05:18:46.955Z,4.83
2019-05-06T05:23:42.839Z,6.37
2019-05-06T05:28:37.711Z,4.87
2019-05-06T05:33:32.857Z,4.13
2019-05-06T05:38:27.686Z,4.00
2019-05-06T05:43:39.774Z,4.50
2019-05-06T05:48:39.704Z,4.50
2019-05-06T05:53:34.771Z,4.00
2019-05-06T05:58:29.668Z,3.57
2019-05-06T06:03:24.386Z,3.77
2019-05-06T06:08:21.821Z,3.80
2019-05-06T06:13:15.671Z,4.70
2019-05-06T06:18:28.478Z,4.50
2019-05-06T06:23:24.854Z,5.43
2019-05-06T06:28:19.738Z,5.37
2019-05-06T06:33:14.744Z,4.90
2019-05-06T06:38:24.439Z,5.63
2019-05-06T06:43:20.671Z,5.00
2019-05-06T06:48:15.549Z,5.50
2019-05-06T06:53:12.174Z,4.80
2019-05-06T06:58:12.009Z,7.70
2019-05-06T07:03:12.311Z,11.33
2019-05-06T07:08:12.545Z,6.60
2019-05-06T07:13:09.488Z,6.47
2019-05-06T07:18:04.751Z,5.30
2019-05-06T07:23:01.943Z,5.60
2019-05-06T07:27:56.854Z,5.60
2019-05-06T07:32:52.750Z,5.30
2019-05-06T07:37:47.578Z,5.63
2019-05-06T07:42:43.841Z,5.50
2019-05-06T07:47:42.465Z,5.87
2019-05-06T07:52:36.462Z,5.57
2019-05-06T07:57:33.060Z,5.40
2019-05-06T08:02:27.547Z,4.63
2019-05-06T08:07:22.523Z,4.73
2019-05-06T08:12:23.636Z,5.40
2019-05-06T08:17:23.805Z,4.80
2019-05-06T08:22:22.713Z,4.53
2019-05-06T08:27:18.928Z,4.43
2019-05-06T08:32:14.903Z,4.23
2019-05-06T08:37:17.332Z,4.43
2019-05-06T08:42:13.519Z,4.63
2019-05-06T08:47:08.169Z,3.70
2019-05-06T08:52:04.444Z,3.87
2019-05-06T08:57:05.260Z,3.60
2019-05-06T09:02:06.697Z,4.07
2019-05-06T09:07:08.567Z,3.67
2019-05-06T09:12:03.460Z,3.90
2019-05-06T09:17:11.838Z,4.13
2019-05-06T09:22:09.793Z,3.53
2019-05-06T09:27:14.708Z,3.73
2019-05-06T09:32:14.947Z,3.90
2019-05-06T09:37:14.242Z,2.93
2019-05-06T09:42:12.660Z,2.53
2019-05-06T09:47:12.627Z,3.17
2019-05-06T09:52:07.577Z,2.57
2019-05-06T09:57:06.384Z,2.13
2019-05-06T10:02:07.402Z,2.70
2019-05-06T10:07:12.007Z,2.80
2019-05-06T10:12:13.259Z,2.63
2019-05-06T10:17:13.393Z,2.90
2019-05-06T10:22:08.290Z,2.60
2019-05-06T10:27:02.920Z,2.40
2019-05-06T10:32:05.197Z,1.70
2019-05-06T10:37:19.447Z,2.40
2019-05-06T10:42:24.091Z,2.20
2019-05-06T10:47:19.287Z,2.30
2019-05-06T10:52:24.329Z,2.03
2019-05-06T10:57:52.944Z,1.80
2019-05-06T11:02:59.319Z,2.23
2019-05-06T11:08:02.352Z,1.70
2019-05-06T11:13:03.817Z,1.97
2019-05-06T11:18:04.163Z,2.07
2019-05-06T11:23:06.611Z,2.00
2019-05-06T11:28:08.252Z,1.80
2019-05-06T11:33:14.728Z,1.87
2019-05-06T11:38:14.214Z,2.20
2019-05-06T11:43:11.970Z,1.90
2019-05-06T11:48:14.550Z,2.00
2019-05-06T11:53:15.555Z,2.00
2019-05-06T11:58:29.857Z,2.70
2019-05-06T12:03:24.520Z,2.70
2019-05-06T12:08:22.199Z,2.73
2019-05-06T12:13:19.906Z,3.10
2019-05-06T12:18:14.644Z,3.00
2019-05-06T12:23:09.304Z,2.70
2019-05-06T12:28:05.482Z,3.93
2019-05-06T12:33:03.267Z,3.60
2019-05-06T12:38:05.179Z,3.37
2019-05-06T12:43:14.386Z,2.73
2019-05-06T12:48:13.106Z,3.00
2019-05-06T12:53:08.399Z,2.30
2019-05-06T12:58:03.366Z,2.43
2019-05-06T13:02:58.274Z,2.60
2019-05-06T13:07:53.897Z,1.87
2019-05-06T13:12:53.873Z,1.87
2019-05-06T13:17:54.267Z,2.70
2019-05-06T13:23:17.167Z,2.50
2019-05-06T13:28:15.978Z,2.10
2019-05-06T13:33:13.915Z,2.10
2019-05-06T13:38:10.170Z,2.20
2019-05-06T13:43:13.001Z,2.13
2019-05-06T13:48:27.603Z,1.93
2019-05-06T13:53:39.068Z,1.90
2019-05-06T13:58:27.785Z,1.90
2019-05-06T14:03:22.474Z,2.30
2019-05-06T14:08:22.132Z,2.20
2019-05-06T14:13:21.964Z,2.20
2019-05-06T14:18:16.152Z,2.20
2019-05-06T14:23:12.668Z,2.27
2019-05-06T14:28:23.692Z,1.60
2019-05-06T14:33:19.955Z,1.70
2019-05-06T14:38:14.575Z,2.07
2019-05-06T14:43:09.246Z,2.23
2019-05-06T14:48:03.916Z,2.03
2019-05-06T14:52:58.504Z,2.23
2019-05-06T14:57:53.562Z,2.00
2019-05-06T15:02:48.485Z,1.97
2019-05-06T15:07:43.385Z,1.93
2019-05-06T15:12:45.699Z,2.57
2019-05-06T15:17:42.449Z,2.10
2019-05-06T15:22:36.734Z,2.20
2019-05-06T15:27:33.457Z,2.27
2019-05-06T15:32:35.136Z,2.90
2019-05-06T15:37:33.847Z,2.90
2019-05-06T15:42:27.994Z,2.60
2019-05-06T15:47:22.823Z,3.00
2019-05-06T15:52:17.670Z,3.13
2019-05-06T15:57:12.348Z,3.33
2019-05-06T16:02:06.921Z,3.20
2019-05-06T16:07:02.853Z,3.30
2019-05-06T16:11:57.830Z,2.83
2019-05-06T16:16:52.911Z,3.07
2019-05-06T16:21:47.730Z,3.33
2019-05-06T16:26:42.555Z,3.50
2019-05-06T16:31:38.637Z,3.83
2019-05-06T16:36:33.211Z,3.50
2019-05-06T16:41:27.816Z,3.30
2019-05-06T16:46:23.037Z,3.80
2019-05-06T16:51:18.139Z,3.17
2019-05-06T16:56:14.981Z,3.20
2019-05-06T17:01:14.907Z,3.03
2019-05-06T17:06:14.109Z,3.10
2019-05-06T17:11:08.712Z,3.40
2019-05-06T17:16:03.458Z,3.13
2019-05-06T17:20:58.049Z,3.10
2019-05-06T17:25:52.694Z,3.40
2019-05-06T17:30:53.573Z,3.37
2019-05-06T17:35:47.950Z,3.40
2019-05-06T17:40:42.988Z,3.37
2019-05-06T17:46:01.145Z,3.30
2019-05-06T17:50:46.199Z,3.50
2019-05-06T17:55:40.787Z,3.53
2019-05-06T18:00:35.618Z,3.27
2019-05-06T18:05:32.334Z,3.40
2019-05-06T18:10:26.538Z,3.27
2019-05-06T18:15:22.586Z,3.13
2019-05-06T18:20:18.882Z,3.33
2019-05-06T18:25:13.563Z,3.17
2019-05-06T18:30:17.778Z,3.30
2019-05-06T18:35:07.030Z,3.13
2019-05-06T18:40:01.729Z,3.10
2019-05-06T18:44:56.338Z,3.00
2019-05-06T18:49:52.303Z,3.60
2019-05-06T18:54:47.311Z,3.67
2019-05-06T18:59:42.620Z,3.73
2019-05-06T19:04:39.172Z,3.43
2019-05-06T19:09:38.202Z,3.47
2019-05-06T19:14:33.328Z,3.30
2019-05-06T19:19:28.302Z,3.60
2019-05-06T19:24:22.909Z,3.53
2019-05-06T19:29:17.529Z,3.47
2019-05-06T19:34:12.895Z,3.67
2019-05-06T19:39:08.741Z,3.57
2019-05-06T19:44:03.370Z,3.77
2019-05-06T19:48:57.958Z,3.73
2019-05-06T19:53:52.552Z,3.77
2019-05-06T19:58:47.132Z,3.70
2019-05-06T20:03:41.750Z,3.70
2019-05-06T20:08:43.469Z,3.90
2019-05-06T20:13:38.077Z,4.07
2019-05-06T20:18:32.897Z,3.90
2019-05-06T20:23:27.568Z,4.00
2019-05-06T20:28:22.769Z,4.50
2019-05-06T20:33:18.513Z,4.90
2019-05-06T20:38:13.613Z,4.63
2019-05-06T20:43:17.402Z,5.00
2019-05-06T20:48:04.680Z,4.50
2019-05-06T20:52:59.325Z,4.93
2019-05-06T20:57:53.895Z,4.83
2019-05-06T21:02:48.476Z,4.30
2019-05-06T21:07:43.340Z,3.80
2019-05-06T21:12:38.032Z,4.33
2019-05-06T21:17:32.613Z,4.20
2019-05-06T21:22:27.199Z,5.10
2019-05-06T21:27:23.043Z,4.70
2019-05-06T21:32:17.856Z,5.30
2019-05-06T21:37:12.440Z,5.27
2019-05-06T21:42:07.108Z,5.17
2019-05-06T21:47:02.873Z,5.00
2019-05-06T21:51:57.969Z,4.73
2019-05-06T21:56:53.182Z,4.47
2019-05-06T22:01:48.313Z,4.57
2019-05-06T22:06:45.599Z,4.60
2019-05-06T22:11:39.206Z,4.33
2019-05-06T22:16:33.801Z,5.33
2019-05-06T22:21:28.391Z,6.03
2019-05-06T22:26:23.808Z,5.73
2019-05-06T22:31:18.482Z,4.90
2019-05-06T22:36:13.310Z,4.27
2019-05-06T22:41:08.662Z,5.47
2019-05-06T22:46:03.473Z,5.87
2019-05-06T22:50:58.067Z,5.27
2019-05-06T22:55:53.494Z,5.80
2019-05-06T23:00:53.706Z,5.90
2019-05-06T23:05:48.609Z,5.37
2019-05-06T23:10:43.264Z,5.10
2019-05-06T23:15:37.854Z,5.23
2019-05-06T23:20:32.451Z,5.03
2019-05-06T23:25:27.040Z,4.77
2019-05-06T23:30:23.631Z,5.43
2019-05-06T23:35:17.967Z,6.00
2019-05-06T23:41:07.385Z,5.10
2019-05-06T23:46:56.216Z,4.70
2019-05-06T23:52:45.069Z,5.40
2019-05-06T23:57:37.970Z,5.30
